createdAt,value
2023-04-11T00:01:23.493Z,12.40
2023-04-11T00:03:50.372Z,12.40
2023-04-11T00:06:17.175Z,12.40
2023-04-11T00:08:44.449Z,12.30
2023-04-11T00:11:11.134Z,12.40
2023-04-11T00:13:38.411Z,12.30
2023-04-11T00:16:07.561Z,12.30
2023-04-11T00:18:36.197Z,12.30
2023-04-11T00:21:04.519Z,12.40
2023-04-11T00:23:31.272Z,12.40
2023-04-11T00:25:58.422Z,12.40
2023-04-11T00:28:25.362Z,12.40
2023-04-11T00:30:51.974Z,12.30
2023-04-11T00:33:22.160Z,12.40
2023-04-11T00:35:48.837Z,12.40
2023-04-11T00:38:15.528Z,12.30
2023-04-11T00:40:42.856Z,12.40
2023-04-11T00:43:09.482Z,12.40
2023-04-11T00:45:36.823Z,12.40
2023-04-11T00:48:03.649Z,12.40
2023-04-11T00:50:30.370Z,12.40
2023-04-11T00:52:58.265Z,12.40
2023-04-11T00:55:26.007Z,12.40
2023-04-11T00:57:55.230Z,12.40
2023-04-11T01:00:23.285Z,12.30
2023-04-11T01:02:50.205Z,12.30
2023-04-11T01:05:17.237Z,12.30
2023-04-11T01:07:47.030Z,12.30
2023-04-11T01:10:15.265Z,12.30
2023-04-11T01:12:43.991Z,12.30
2023-04-11T01:15:10.715Z,12.30
2023-04-11T01:17:37.619Z,12.30
2023-04-11T01:20:07.729Z,12.30
2023-04-11T01:22:35.002Z,12.30
2023-04-11T01:25:02.123Z,12.30
2023-04-11T01:27:29.355Z,12.30
2023-04-11T01:29:55.981Z,12.40
2023-04-11T01:32:22.582Z,12.40
2023-04-11T01:34:51.315Z,12.40
2023-04-11T01:37:18.031Z,12.40
2023-04-11T01:39:44.803Z,12.40
2023-04-11T01:42:12.613Z,12.40
2023-04-11T01:44:39.550Z,12.40
2023-04-11T01:47:06.263Z,12.40
2023-04-11T01:49:33.471Z,12.40
2023-04-11T01:52:00.160Z,12.30
2023-04-11T01:54:26.801Z,12.40
2023-04-11T01:56:54.803Z,12.40
2023-04-11T01:59:21.458Z,12.40
2023-04-11T02:01:48.214Z,12.40
2023-04-11T02:04:14.999Z,12.50
2023-04-11T02:06:41.759Z,12.50
2023-04-11T02:09:08.439Z,12.50
2023-04-11T02:11:35.281Z,12.50
2023-04-11T02:14:03.391Z,12.50
2023-04-11T02:16:30.200Z,12.50
2023-04-11T02:18:57.113Z,12.50
2023-04-11T02:21:24.047Z,12.40
2023-04-11T02:23:50.726Z,12.50
2023-04-11T02:26:17.328Z,12.50
2023-04-11T02:28:43.965Z,12.50
2023-04-11T02:31:13.746Z,12.50
2023-04-11T02:33:40.470Z,12.50
2023-04-11T02:36:07.443Z,12.50
2023-04-11T02:38:34.072Z,12.50
2023-04-11T02:41:01.022Z,12.50
2023-04-11T02:43:27.681Z,12.40
2023-04-11T02:46:02.037Z,12.50
2023-04-11T02:48:36.291Z,12.40
2023-04-11T02:51:02.901Z,12.60
2023-04-11T02:53:29.517Z,12.40
2023-04-11T02:55:56.147Z,12.40
2023-04-11T02:58:25.823Z,12.40
2023-04-11T03:00:52.450Z,12.40
2023-04-11T03:03:19.195Z,12.40
2023-04-11T03:05:47.416Z,12.50
2023-04-11T03:08:14.040Z,12.40
2023-04-11T03:10:40.768Z,12.40
2023-04-11T03:13:07.441Z,12.50
2023-04-11T03:15:34.072Z,12.50
2023-04-11T03:18:00.826Z,12.60
2023-04-11T03:20:27.491Z,12.50
2023-04-11T03:22:54.108Z,12.50
2023-04-11T03:25:21.233Z,12.50
2023-04-11T03:27:47.861Z,12.50
2023-04-11T03:30:14.861Z,12.50
2023-04-11T03:32:41.919Z,12.40
2023-04-11T03:35:08.985Z,12.20
2023-04-11T03:37:36.364Z,12.00
2023-04-11T03:40:04.165Z,11.80
2023-04-11T03:42:30.820Z,11.80
2023-04-11T03:44:57.398Z,11.80
2023-04-11T03:47:24.103Z,11.80
2023-04-11T03:49:50.747Z,11.80
2023-04-11T03:52:17.597Z,11.80
2023-04-11T03:54:46.363Z,11.60
2023-04-11T03:57:14.307Z,11.10
2023-04-11T03:59:41.099Z,10.90
2023-04-11T04:02:08.386Z,10.80
2023-04-11T04:04:37.363Z,10.70
2023-04-11T04:07:04.298Z,10.60
2023-04-11T04:09:30.922Z,10.60
2023-04-11T04:11:57.574Z,10.50
2023-04-11T04:14:24.138Z,10.40
2023-04-11T04:16:50.802Z,10.40
2023-04-11T04:19:17.561Z,10.30
2023-04-11T04:21:45.824Z,10.40
2023-04-11T04:24:12.571Z,10.40
2023-04-11T04:26:39.700Z,10.40
2023-04-11T04:29:09.992Z,10.40
2023-04-11T04:31:37.056Z,10.40
2023-04-11T04:34:08.710Z,10.40
2023-04-11T04:36:49.228Z,10.50
2023-04-11T04:39:17.441Z,10.60
2023-04-11T04:42:14.664Z,10.60
2023-04-11T04:44:41.347Z,10.60
2023-04-11T04:47:08.131Z,10.50
2023-04-11T04:49:34.763Z,10.60
2023-04-11T04:52:01.553Z,10.50
2023-04-11T04:54:28.639Z,10.40
2023-04-11T04:56:55.467Z,10.40
2023-04-11T04:59:22.107Z,10.30
2023-04-11T05:01:51.554Z,10.30
2023-04-11T05:04:18.485Z,10.30
2023-04-11T05:06:45.409Z,10.40
2023-04-11T05:09:12.316Z,10.30
2023-04-11T05:11:38.964Z,10.40
2023-04-11T05:14:05.761Z,10.40
2023-04-11T05:16:32.410Z,10.40
2023-04-11T05:18:59.135Z,10.40
2023-04-11T05:21:26.819Z,10.40
2023-04-11T05:23:53.724Z,10.40
2023-04-11T05:26:23.272Z,10.10
2023-04-11T05:28:49.949Z,9.80
2023-04-11T05:31:16.923Z,9.60
2023-04-11T05:33:43.761Z,9.40
2023-04-11T05:36:14.246Z,9.30
2023-04-11T05:38:41.779Z,9.20
2023-04-11T05:41:09.031Z,9.10
2023-04-11T05:43:35.981Z,9.00
2023-04-11T05:46:03.154Z,9.00
2023-04-11T05:48:30.182Z,8.90
2023-04-11T05:50:58.114Z,8.90
2023-04-11T05:53:24.909Z,8.90
2023-04-11T05:55:51.583Z,8.90
2023-04-11T05:58:21.360Z,8.80
2023-04-11T06:00:49.731Z,8.70
2023-04-11T06:03:19.605Z,8.70
2023-04-11T06:05:46.379Z,8.80
2023-04-11T06:08:13.067Z,8.80
2023-04-11T06:10:39.783Z,8.80
2023-04-11T06:13:06.531Z,8.80
2023-04-11T06:15:33.190Z,8.80
2023-04-11T06:17:59.865Z,8.80
2023-04-11T06:20:26.632Z,8.80
2023-04-11T06:22:53.356Z,8.90
2023-04-11T06:25:21.633Z,8.80
2023-04-11T06:27:48.579Z,8.80
2023-04-11T06:30:15.406Z,8.90
2023-04-11T06:32:42.180Z,8.90
2023-04-11T06:35:09.525Z,8.90
2023-04-11T06:37:36.213Z,9.00
2023-04-11T06:40:05.329Z,9.00
2023-04-11T06:42:32.012Z,8.90
2023-04-11T06:44:58.706Z,8.90
2023-04-11T06:47:25.697Z,8.90
2023-04-11T06:49:52.456Z,8.90
2023-04-11T06:52:19.106Z,9.00
2023-04-11T06:54:47.972Z,8.90
2023-04-11T06:57:14.832Z,8.90
2023-04-11T06:59:41.493Z,8.90
2023-04-11T07:02:08.335Z,8.90
2023-04-11T07:04:35.056Z,8.80
2023-04-11T07:07:01.773Z,8.90
2023-04-11T07:09:28.553Z,8.90
2023-04-11T07:11:56.163Z,8.90
2023-04-11T07:14:22.844Z,8.90
2023-04-11T07:16:49.456Z,9.00
2023-04-11T07:19:16.096Z,8.90
2023-04-11T07:21:42.819Z,8.90
2023-04-11T07:24:10.562Z,8.80
2023-04-11T07:26:38.697Z,8.90
2023-04-11T07:29:07.872Z,9.00
2023-04-11T07:31:36.283Z,9.00
2023-04-11T07:34:03.043Z,8.90
2023-04-11T07:36:29.687Z,8.80
2023-04-11T07:38:57.563Z,8.90
2023-04-11T07:41:24.194Z,8.90
2023-04-11T07:43:50.887Z,9.00
2023-04-11T07:46:17.823Z,9.10
2023-04-11T07:48:44.501Z,9.10
2023-04-11T07:51:14.046Z,9.10
2023-04-11T07:53:40.634Z,9.10
2023-04-11T07:56:07.869Z,9.20
2023-04-11T07:58:34.484Z,9.20
2023-04-11T08:01:02.659Z,9.20
2023-04-11T08:03:30.107Z,9.20
2023-04-11T08:05:56.913Z,9.30
2023-04-11T08:08:23.609Z,9.30
2023-04-11T08:10:52.161Z,9.30
2023-04-11T08:13:19.026Z,9.30
2023-04-11T08:15:45.723Z,9.30
2023-04-11T08:18:12.606Z,9.20
2023-04-11T08:20:40.678Z,9.20
2023-04-11T08:23:08.749Z,9.30
2023-04-11T08:25:36.573Z,9.30
2023-04-11T08:28:05.009Z,9.30
2023-04-11T08:30:31.892Z,9.40
2023-04-11T08:32:58.549Z,9.40
2023-04-11T08:35:25.233Z,9.50
2023-04-11T08:37:52.205Z,9.50
2023-04-11T08:40:18.795Z,9.50
2023-04-11T08:42:46.044Z,9.50
2023-04-11T08:45:13.037Z,9.60
2023-04-11T08:47:39.762Z,9.60
2023-04-11T08:50:07.403Z,9.60
2023-04-11T08:52:34.496Z,9.60
2023-04-11T08:55:01.578Z,9.90
2023-04-11T08:57:33.305Z,9.80
2023-04-11T09:00:10.977Z,10.00
2023-04-11T09:02:59.494Z,10.00
2023-04-11T09:05:30.143Z,10.20
2023-04-11T09:08:02.304Z,10.30
2023-04-11T09:10:29.070Z,10.20
2023-04-11T09:12:56.629Z,10.20
2023-04-11T09:15:28.019Z,10.20
2023-04-11T09:17:56.979Z,10.20
2023-04-11T09:20:26.356Z,10.20
2023-04-11T09:22:58.990Z,10.00
2023-04-11T09:25:25.818Z,9.90
2023-04-11T09:28:08.379Z,9.70
2023-04-11T09:30:35.252Z,9.70
2023-04-11T09:33:31.489Z,9.80
2023-04-11T09:35:58.208Z,9.90
2023-04-11T09:38:35.079Z,10.00
2023-04-11T09:41:03.907Z,10.10
2023-04-11T09:43:50.766Z,10.30
2023-04-11T09:46:21.586Z,10.40
2023-04-11T09:48:57.202Z,10.40
2023-04-11T09:53:55.363Z,10.30
2023-04-11T09:56:23.898Z,10.20
2023-04-11T09:58:51.575Z,10.20
2023-04-11T10:01:19.912Z,10.20
2023-04-11T10:03:50.847Z,10.40
2023-04-11T10:06:31.559Z,10.30
2023-04-11T10:09:12.746Z,10.40
2023-04-11T10:11:43.983Z,10.40
2023-04-11T10:14:36.413Z,10.40
2023-04-11T10:17:15.805Z,10.50
2023-04-11T10:19:44.923Z,10.60
2023-04-11T10:22:40.596Z,10.70
2023-04-11T10:25:24.655Z,10.90
2023-04-11T10:27:53.798Z,11.00
2023-04-11T10:30:39.362Z,11.20
2023-04-11T10:33:17.327Z,11.30
2023-04-11T10:36:11.011Z,11.40
2023-04-11T10:38:43.549Z,11.50
2023-04-11T10:41:33.073Z,11.60
2023-04-11T10:44:29.072Z,11.60
2023-04-11T10:46:55.871Z,11.50
2023-04-11T10:49:38.829Z,11.40
2023-04-11T10:52:22.809Z,11.50
2023-04-11T10:54:51.569Z,11.70
2023-04-11T10:57:18.593Z,11.80
2023-04-11T10:59:57.041Z,11.90
2023-04-11T11:02:36.439Z,11.80
2023-04-11T11:05:15.249Z,11.60
2023-04-11T11:07:46.590Z,11.50
2023-04-11T11:10:13.798Z,11.40
2023-04-11T11:12:54.604Z,11.40
2023-04-11T11:15:21.519Z,11.40
2023-04-11T11:17:48.282Z,11.50
2023-04-11T11:20:20.029Z,11.60
2023-04-11T11:23:00.931Z,11.80
2023-04-11T11:25:27.756Z,11.90
2023-04-11T11:28:08.252Z,11.90
2023-04-11T11:30:38.568Z,11.90
2023-04-11T11:33:17.154Z,12.00
2023-04-11T11:35:54.427Z,12.10
2023-04-11T11:38:22.757Z,12.20
2023-04-11T11:40:49.866Z,12.20
2023-04-11T11:43:19.423Z,12.20
2023-04-11T11:45:46.365Z,12.30
2023-04-11T11:48:24.170Z,12.40
2023-04-11T11:50:57.891Z,12.30
2023-04-11T11:53:26.022Z,12.30
2023-04-11T11:55:53.213Z,12.30
2023-04-11T11:58:20.467Z,12.20
2023-04-11T12:00:52.323Z,12.20
2023-04-11T12:03:23.607Z,12.20
2023-04-11T12:05:55.057Z,12.20
2023-04-11T12:08:22.295Z,12.00
2023-04-11T12:10:50.518Z,12.00
2023-04-11T12:13:23.396Z,12.10
2023-04-11T12:15:55.105Z,12.20
2023-04-11T12:18:23.030Z,12.20
2023-04-11T12:20:50.736Z,12.30
2023-04-11T12:23:18.513Z,12.50
2023-04-11T12:25:46.455Z,12.50
2023-04-11T12:28:13.823Z,12.40
2023-04-11T12:30:40.626Z,12.20
2023-04-11T12:33:07.551Z,12.10
2023-04-11T12:35:34.324Z,12.10
2023-04-11T12:38:01.243Z,12.10
2023-04-11T12:40:29.749Z,12.20
2023-04-11T12:42:57.457Z,12.30
2023-04-11T12:45:25.162Z,12.30
2023-04-11T12:47:52.433Z,12.30
2023-04-11T12:50:19.349Z,12.30
2023-04-11T12:52:46.181Z,12.20
2023-04-11T12:55:13.418Z,12.20
2023-04-11T12:57:40.968Z,12.20
2023-04-11T13:00:08.864Z,12.20
2023-04-11T13:02:42.686Z,12.20
2023-04-11T13:05:14.207Z,12.30
2023-04-11T13:07:41.332Z,12.60
2023-04-11T13:10:08.632Z,12.50
2023-04-11T13:12:41.110Z,12.60
2023-04-11T13:15:09.431Z,12.70
2023-04-11T13:17:36.098Z,12.90
2023-04-11T13:20:07.110Z,12.80
2023-04-11T13:22:34.591Z,12.70
2023-04-11T13:25:01.281Z,12.70
2023-04-11T13:27:27.913Z,12.60
2023-04-11T13:29:54.736Z,12.70
2023-04-11T13:32:21.435Z,12.80
2023-04-11T13:34:48.104Z,13.00
2023-04-11T13:37:14.774Z,13.20
2023-04-11T13:39:42.134Z,13.40
2023-04-11T13:42:09.275Z,13.30
2023-04-11T13:44:35.984Z,13.30
2023-04-11T13:47:03.618Z,13.00
2023-04-11T13:49:30.583Z,12.80
2023-04-11T13:51:57.312Z,12.80
2023-04-11T13:54:24.285Z,12.70
2023-04-11T13:56:51.025Z,12.60
2023-04-11T13:59:17.897Z,12.60
2023-04-11T14:01:44.622Z,12.50
2023-04-11T14:04:11.792Z,12.40
2023-04-11T14:06:39.482Z,12.20
2023-04-11T14:09:06.123Z,12.10
2023-04-11T14:11:32.819Z,12.00
2023-04-11T14:13:59.476Z,11.90
2023-04-11T14:16:26.183Z,11.80
2023-04-11T14:18:52.880Z,11.70
2023-04-11T14:21:19.620Z,11.60
2023-04-11T14:23:46.263Z,11.40
2023-04-11T14:26:12.969Z,11.50
2023-04-11T14:28:39.554Z,11.50
2023-04-11T14:31:06.574Z,11.20
2023-04-11T14:33:33.354Z,11.10
2023-04-11T14:36:02.946Z,11.00
2023-04-11T14:38:29.548Z,11.00
2023-04-11T14:40:56.267Z,11.20
2023-04-11T14:43:22.932Z,11.50
2023-04-11T14:45:54.664Z,11.90
2023-04-11T14:48:21.553Z,12.10
2023-04-11T14:50:48.186Z,12.30
2023-04-11T14:53:14.827Z,12.70
2023-04-11T14:55:44.714Z,12.90
2023-04-11T14:58:11.507Z,13.10
2023-04-11T15:00:38.217Z,13.30
2023-04-11T15:03:04.990Z,13.40
2023-04-11T15:05:34.890Z,13.30
2023-04-11T15:08:02.111Z,13.40
2023-04-11T15:10:30.201Z,13.20
2023-04-11T15:12:56.878Z,13.10
2023-04-11T15:15:23.684Z,13.30
2023-04-11T15:18:23.550Z,13.60
2023-04-11T15:20:50.866Z,13.80
2023-04-11T15:23:19.201Z,13.70
2023-04-11T15:26:03.000Z,13.40
2023-04-11T15:28:35.773Z,13.20
2023-04-11T15:31:03.832Z,13.40
2023-04-11T15:33:31.782Z,13.60
2023-04-11T15:36:00.900Z,13.60
2023-04-11T15:38:29.659Z,13.80
2023-04-11T15:40:58.508Z,13.80
2023-04-11T15:43:26.131Z,13.80
2023-04-11T15:45:55.897Z,13.80
2023-04-11T15:48:22.573Z,13.60
2023-04-11T15:50:49.303Z,13.60
2023-04-11T15:53:16.217Z,13.60
2023-04-11T15:55:43.786Z,13.60
2023-04-11T15:58:10.831Z,13.60
2023-04-11T16:00:38.323Z,13.60
2023-04-11T16:03:08.240Z,13.70
2023-04-11T16:05:38.171Z,13.80
2023-04-11T16:08:10.635Z,13.90
2023-04-11T16:10:37.368Z,13.80
2023-04-11T16:13:04.127Z,13.90
2023-04-11T16:15:31.544Z,13.90
2023-04-11T16:17:59.133Z,14.00
2023-04-11T16:20:25.844Z,13.90
2023-04-11T16:22:52.498Z,13.90
2023-04-11T16:25:21.178Z,13.90
2023-04-11T16:27:48.418Z,14.00
2023-04-11T16:30:15.398Z,13.90
2023-04-11T16:32:42.268Z,13.80
2023-04-11T16:35:09.269Z,13.70
2023-04-11T16:37:35.978Z,13.60
2023-04-11T16:40:06.645Z,13.60
2023-04-11T16:42:33.353Z,13.60
2023-04-11T16:45:00.180Z,13.60
2023-04-11T16:47:26.947Z,14.00
2023-04-11T16:49:53.621Z,14.70
2023-04-11T16:52:21.402Z,15.30
2023-04-11T16:54:48.530Z,15.80
2023-04-11T16:57:15.706Z,16.20
2023-04-11T16:59:42.619Z,15.70
2023-04-11T17:02:12.355Z,15.20
2023-04-11T17:04:46.505Z,14.90
2023-04-11T17:07:16.261Z,14.70
2023-04-11T17:09:43.103Z,14.70
2023-04-11T17:12:09.845Z,14.50
2023-04-11T17:14:36.663Z,14.20
2023-04-11T17:17:03.970Z,13.90
2023-04-11T17:19:31.526Z,13.70
2023-04-11T17:22:00.960Z,13.70
2023-04-11T17:24:28.847Z,13.80
2023-04-11T17:26:56.933Z,13.90
2023-04-11T17:29:23.771Z,13.90
2023-04-11T17:31:50.590Z,13.70
2023-04-11T17:34:17.322Z,13.50
2023-04-11T17:36:43.969Z,13.40
2023-04-11T17:39:17.059Z,13.20
2023-04-11T17:41:45.372Z,13.00
2023-04-11T17:44:12.593Z,12.80
2023-04-11T17:46:42.336Z,12.60
2023-04-11T17:49:11.911Z,12.50
2023-04-11T17:51:43.045Z,12.20
2023-04-11T17:54:15.629Z,12.10
2023-04-11T17:56:42.309Z,12.00
2023-04-11T17:59:09.354Z,11.80
2023-04-11T18:01:36.007Z,11.70
2023-04-11T18:04:02.977Z,11.70
2023-04-11T18:06:34.305Z,11.70
2023-04-11T18:09:02.426Z,11.70
2023-04-11T18:11:29.107Z,11.70
2023-04-11T18:13:55.949Z,11.60
2023-04-11T18:16:23.196Z,11.60
2023-04-11T18:18:50.437Z,11.40
2023-04-11T18:21:18.927Z,11.40
2023-04-11T18:23:45.948Z,11.30
2023-04-11T18:26:15.327Z,11.30
2023-04-11T18:28:41.982Z,11.20
2023-04-11T18:31:09.486Z,11.10
2023-04-11T18:33:38.867Z,11.10
2023-04-11T18:36:08.205Z,11.00
2023-04-11T18:38:34.885Z,10.90
2023-04-11T18:41:06.792Z,10.80
2023-04-11T18:43:34.122Z,10.80
2023-04-11T18:46:03.967Z,10.80
2023-04-11T18:48:31.636Z,10.80
2023-04-11T18:50:59.694Z,10.80
2023-04-11T18:53:28.305Z,10.80
2023-04-11T18:55:55.031Z,10.80
2023-04-11T18:58:25.564Z,10.80
2023-04-11T19:00:53.163Z,10.70
2023-04-11T19:03:20.842Z,10.70
2023-04-11T19:05:48.269Z,10.70
2023-04-11T19:08:15.426Z,10.80
2023-04-11T19:10:42.446Z,10.80
2023-04-11T19:13:09.304Z,10.90
2023-04-11T19:15:36.013Z,10.80
2023-04-11T19:18:02.705Z,10.90
2023-04-11T19:20:30.974Z,10.90
2023-04-11T19:22:59.781Z,10.90
2023-04-11T19:25:29.307Z,10.90
2023-04-11T19:27:57.192Z,10.80
2023-04-11T19:30:23.909Z,10.80
2023-04-11T19:32:50.838Z,10.80
2023-04-11T19:35:21.171Z,10.70
2023-04-11T19:37:47.905Z,10.70
2023-04-11T19:40:14.840Z,10.70
2023-04-11T19:42:42.171Z,10.70
2023-04-11T19:45:15.377Z,10.80
2023-04-11T19:47:42.294Z,10.80
2023-04-11T19:50:13.927Z,10.70
2023-04-11T19:52:41.791Z,10.70
2023-04-11T19:55:09.672Z,10.70
2023-04-11T19:57:39.203Z,10.60
2023-04-11T20:00:14.507Z,10.60
2023-04-11T20:02:46.517Z,10.60
2023-04-11T20:05:20.289Z,10.60
2023-04-11T20:07:47.685Z,10.40
2023-04-11T20:10:15.742Z,10.30
2023-04-11T20:12:42.585Z,10.30
2023-04-11T20:15:09.950Z,10.20
2023-04-11T20:17:39.304Z,10.30
2023-04-11T20:20:08.407Z,10.20
2023-04-11T20:22:38.047Z,10.30
2023-04-11T20:25:07.772Z,10.30
2023-04-11T20:27:34.493Z,10.30
2023-04-11T20:30:04.234Z,10.30
2023-04-11T20:32:30.919Z,10.30
2023-04-11T20:35:00.858Z,10.30
2023-04-11T20:37:30.833Z,10.30
2023-04-11T20:40:01.597Z,10.30
2023-04-11T20:42:28.400Z,10.40
2023-04-11T20:45:03.179Z,10.60
2023-04-11T20:47:30.025Z,10.50
2023-04-11T20:49:57.486Z,10.60
2023-04-11T20:52:24.162Z,10.70
2023-04-11T20:54:51.059Z,10.70
2023-04-11T20:57:17.668Z,10.80
2023-04-11T20:59:44.316Z,10.80
2023-04-11T21:02:11.085Z,10.80
2023-04-11T21:04:38.023Z,10.70
2023-04-11T21:07:04.728Z,10.80
2023-04-11T21:09:31.530Z,10.90
2023-04-11T21:11:58.242Z,10.90
2023-04-11T21:14:27.496Z,10.80
2023-04-11T21:16:54.116Z,10.80
2023-04-11T21:19:24.847Z,10.80
2023-04-11T21:21:54.268Z,10.90
2023-04-11T21:24:20.945Z,11.00
2023-04-11T21:26:47.558Z,11.10
2023-04-11T21:29:14.245Z,11.20
2023-04-11T21:31:41.028Z,11.40
2023-04-11T21:34:07.801Z,11.50
2023-04-11T21:36:34.423Z,11.50
2023-04-11T21:39:01.344Z,11.70
2023-04-11T21:41:29.347Z,11.70
2023-04-11T21:43:56.265Z,11.70
2023-04-11T21:46:23.225Z,11.80
2023-04-11T21:48:51.516Z,11.80
2023-04-11T21:51:18.497Z,11.80
2023-04-11T21:53:45.180Z,11.80
2023-04-11T21:56:11.903Z,11.80
2023-04-11T21:58:38.676Z,11.80
2023-04-11T22:01:09.615Z,11.80
2023-04-11T22:03:40.341Z,11.80
2023-04-11T22:06:08.105Z,11.80
2023-04-11T22:08:38.538Z,11.80
2023-04-11T22:11:10.188Z,11.80
2023-04-11T22:13:40.050Z,11.80
2023-04-11T22:16:07.562Z,11.80
2023-04-11T22:18:46.882Z,11.80
2023-04-11T22:21:19.440Z,11.70
2023-04-11T22:23:54.601Z,11.70
2023-04-11T22:26:29.288Z,11.70
2023-04-11T22:29:00.378Z,11.70
2023-04-11T22:31:30.309Z,11.70
2023-04-11T22:33:57.987Z,11.70
2023-04-11T22:36:25.110Z,11.70
2023-04-11T22:38:52.947Z,11.70
2023-04-11T22:41:19.655Z,11.70
2023-04-11T22:43:46.272Z,11.70
2023-04-11T22:46:13.603Z,11.70
2023-04-11T22:48:41.935Z,11.70
2023-04-11T22:51:08.666Z,11.80
2023-04-11T22:53:42.096Z,11.60
2023-04-11T22:56:10.912Z,11.60
2023-04-11T22:58:37.775Z,11.60
2023-04-11T23:01:05.382Z,11.60
2023-04-11T23:03:32.069Z,11.60
2023-04-11T23:05:58.793Z,11.60
2023-04-11T23:08:25.549Z,11.60
2023-04-11T23:10:53.014Z,11.50
2023-04-11T23:13:19.776Z,11.50
2023-04-11T23:15:47.134Z,11.50
2023-04-11T23:18:16.901Z,11.50
2023-04-11T23:20:44.701Z,11.50
2023-04-11T23:23:13.215Z,11.50
2023-04-11T23:25:40.642Z,11.40
2023-04-11T23:28:07.978Z,11.40
2023-04-11T23:30:38.867Z,11.40
2023-04-11T23:33:08.476Z,11.40
2023-04-11T23:35:35.903Z,11.40
2023-04-11T23:38:03.389Z,11.40
2023-04-11T23:40:30.446Z,11.50
2023-04-11T23:42:57.960Z,11.40
2023-04-11T23:45:24.977Z,11.30
2023-04-11T23:47:54.762Z,11.40
2023-04-11T23:50:21.517Z,11.30
2023-04-11T23:52:48.177Z,11.30
2023-04-11T23:55:15.382Z,11.30
2023-04-11T23:57:42.128Z,11.30
